Time;durP1;ratioP1;P1;durP2;ratioP2;P2;SDS_P1;SDS_P2;PMS_P1;PMS_P2;Temp;Humidity;BMP_temperature;BMP_pressure;BME280_temperature;BME280_humidity;BME280_pressure;Samples;Min_cycle;Max_cycle;Signal;HPM_P1;HPM_P2
2023/07/13 00:01:27;;;;;;;;;;;;;;;16.39;100.00;101429.75;5017884;28;19917;-76
2023/07/13 00:03:53;;;;;;;;;;;;;;;16.39;100.00;101430.59;5018120;28;19920;-78
2023/07/13 00:06:19;;;;;;;;;;;;;;;16.41;100.00;101430.44;5034816;28;19913;-78
2023/07/13 00:08:45;;;;;;;;;;;;;;;16.41;100.00;101427.75;5036180;28;19917;-77
2023/07/13 00:11:10;;;;;;;;;;;;;;;16.42;100.00;101429.44;5036039;28;19913;-78
2023/07/13 00:13:38;;;;;;;;;;;;;;;16.43;100.00;101427.59;5035911;28;19917;-78
2023/07/13 00:16:03;;;;;;;;;;;;;;;16.42;100.00;101434.81;5035829;28;19917;-78
2023/07/13 00:18:30;;;;;;;;;;;;;;;16.42;100.00;101445.56;5035306;28;19992;-78
2023/07/13 00:20:55;;;;;;;;;;;;;;;16.40;100.00;101440.31;5035141;28;19921;-76
2023/07/13 00:23:21;;;;;;;;;;;;;;;16.40;100.00;101443.00;5035517;28;20023;-77
2023/07/13 00:25:46;;;;;;;;;;;;;;;16.39;100.00;101449.41;5017388;28;19924;-76
2023/07/13 00:28:11;;;;;;;;;;;;;;;16.39;100.00;101444.03;5017362;28;20338;-77
2023/07/13 00:30:36;;;;;;;;;;;;;;;16.39;100.00;101456.59;5017345;28;19940;-77
2023/07/13 00:33:02;;;;;;;;;;;;;;;16.37;100.00;101447.88;5017337;28;19947;-77
2023/07/13 00:35:30;;;;;;;;;;;;;;;16.36;100.00;101457.78;5034658;28;20324;-77
2023/07/13 00:37:56;;;;;;;;;;;;;;;16.35;100.00;101453.41;5034932;28;19920;-77
2023/07/13 00:40:21;;;;;;;;;;;;;;;16.35;100.00;101456.09;5035444;28;19913;-76
2023/07/13 00:42:46;;;;;;;;;;;;;;;16.33;100.00;101452.75;5017262;28;19923;-77
2023/07/13 00:45:12;;;;;;;;;;;;;;;16.30;100.00;101447.69;5034676;28;19917;-76
2023/07/13 00:47:37;;;;;;;;;;;;;;;16.24;100.00;101445.63;5035326;28;19913;-77
2023/07/13 00:50:05;;;;;;;;;;;;;;;16.16;100.00;101446.44;5034683;28;19971;-75
2023/07/13 00:52:30;;;;;;;;;;;;;;;16.07;100.00;101444.72;5034645;28;19967;-76
2023/07/13 00:54:55;;;;;;;;;;;;;;;15.99;100.00;101445.53;5017775;28;19917;-76
2023/07/13 00:57:21;;;;;;;;;;;;;;;15.94;100.00;101452.38;5016564;28;19959;-77
2023/07/13 00:59:48;;;;;;;;;;;;;;;15.86;100.00;101448.66;5016796;28;20422;-75
2023/07/13 01:02:14;;;;;;;;;;;;;;;15.78;100.00;101455.81;5016971;28;19936;-75
2023/07/13 01:04:39;;;;;;;;;;;;;;;15.71;100.00;101452.88;5016419;28;19925;-76
2023/07/13 01:07:06;;;;;;;;;;;;;;;15.62;100.00;101452.00;5016693;28;20011;-77
2023/07/13 01:09:31;;;;;;;;;;;;;;;15.57;100.00;101445.41;5034370;28;19958;-78
2023/07/13 01:11:56;;;;;;;;;;;;;;;15.54;100.00;101456.44;5034280;28;20007;-76
2023/07/13 01:14:22;;;;;;;;;;;;;;;15.48;100.00;101455.22;5016970;28;19917;-77
2023/07/13 01:16:47;;;;;;;;;;;;;;;15.43;100.00;101454.88;5034810;28;19923;-76
2023/07/13 01:19:25;;;;;;;;;;;;;;;15.40;100.00;101455.19;5016748;28;19913;-76
2023/07/13 01:21:51;;;;;;;;;;;;;;;15.37;100.00;101456.31;5034163;28;20276;-76
2023/07/13 01:24:16;;;;;;;;;;;;;;;15.37;100.00;101456.31;5033939;28;19956;-76
2023/07/13 01:26:42;;;;;;;;;;;;;;;15.34;100.00;101465.50;5034124;28;20401;-77
2023/07/13 01:29:07;;;;;;;;;;;;;;;15.31;100.00;101456.94;5033822;28;20357;-77
2023/07/13 01:31:33;;;;;;;;;;;;;;;15.28;100.00;101473.34;5034196;28;19995;-78
2023/07/13 01:33:58;;;;;;;;;;;;;;;15.25;100.00;101476.34;5016865;28;19920;-77
2023/07/13 01:36:23;;;;;;;;;;;;;;;15.19;100.00;101475.13;5016165;28;19913;-76
2023/07/13 01:38:49;;;;;;;;;;;;;;;15.16;100.00;101467.38;5034692;28;19917;-77
2023/07/13 01:41:14;;;;;;;;;;;;;;;15.11;100.00;101467.84;5034053;28;19917;-76
2023/07/13 01:43:39;;;;;;;;;;;;;;;15.08;100.00;101462.78;5033891;28;19921;-76
2023/07/13 01:46:04;;;;;;;;;;;;;;;15.04;100.00;101476.66;5033825;28;19968;-77
2023/07/13 01:48:30;;;;;;;;;;;;;;;14.99;100.00;101469.91;5016141;28;19917;-76
2023/07/13 01:50:55;;;;;;;;;;;;;;;14.97;100.00;101476.41;5033879;28;19917;-76
2023/07/13 01:53:20;;;;;;;;;;;;;;;14.92;100.00;101478.72;5033704;28;20012;-77
2023/07/13 01:55:45;;;;;;;;;;;;;;;14.90;100.00;101475.31;5034178;28;19976;-77
2023/07/13 01:58:11;;;;;;;;;;;;;;;14.88;100.00;101478.16;5033674;28;19959;-76
2023/07/13 02:00:36;;;;;;;;;;;;;;;14.87;100.00;101483.66;5033707;28;19963;-75
2023/07/13 02:03:01;;;;;;;;;;;;;;;14.84;100.00;101476.81;5015987;28;19917;-76
2023/07/13 02:05:28;;;;;;;;;;;;;;;14.84;100.00;101476.81;5034659;28;19921;-76
2023/07/13 02:07:53;;;;;;;;;;;;;;;14.81;100.00;101477.94;5033529;28;19921;-77
2023/07/13 02:10:18;;;;;;;;;;;;;;;14.80;100.00;101483.44;5033908;28;19913;-77
2023/07/13 02:12:44;;;;;;;;;;;;;;;14.76;100.00;101482.91;5015912;28;19920;-77
2023/07/13 02:15:09;;;;;;;;;;;;;;;14.76;100.00;101482.91;5016639;28;19924;-77
2023/07/13 02:17:35;;;;;;;;;;;;;;;14.71;100.00;101485.19;5033574;28;19920;-77
2023/07/13 02:20:01;;;;;;;;;;;;;;;14.66;100.00;101487.50;5015806;28;19917;-75
2023/07/13 02:22:26;;;;;;;;;;;;;;;14.60;100.00;101490.72;5033414;28;19913;-76
2023/07/13 02:24:52;;;;;;;;;;;;;;;14.54;100.00;101481.47;5033353;28;19917;-77
2023/07/13 02:27:17;;;;;;;;;;;;;;;14.51;100.00;101483.59;5033644;28;19921;-76
2023/07/13 02:29:43;;;;;;;;;;;;;;;14.45;100.00;101479.66;5036076;28;20380;-76
2023/07/13 02:32:08;;;;;;;;;;;;;;;14.41;100.00;101483.66;5019076;28;19913;-76
2023/07/13 02:34:34;;;;;;;;;;;;;;;14.38;100.00;101490.13;5019657;28;19917;-77
2023/07/13 02:36:59;;;;;;;;;;;;;;;14.35;100.00;101478.88;5037660;28;19917;-77
2023/07/13 02:39:24;;;;;;;;;;;;;;;14.33;100.00;101484.41;5020157;28;20015;-76
2023/07/13 02:41:49;;;;;;;;;;;;;;;14.32;100.00;101482.69;5019296;28;19917;-76
2023/07/13 02:44:15;;;;;;;;;;;;;;;14.31;100.00;101480.16;5036842;28;19916;-76
2023/07/13 02:46:40;;;;;;;;;;;;;;;14.31;100.00;101486.34;5036939;28;19952;-75
2023/07/13 02:49:05;;;;;;;;;;;;;;;14.33;100.00;101486.22;5037738;28;20007;-77
2023/07/13 02:51:33;;;;;;;;;;;;;;;14.36;100.00;101486.78;5037381;28;20335;-77
2023/07/13 02:53:59;;;;;;;;;;;;;;;14.36;100.00;101480.56;5018712;28;19956;-77
2023/07/13 02:56:25;;;;;;;;;;;;;;;14.38;100.00;101486.63;5036486;28;19963;-77
2023/07/13 02:58:51;;;;;;;;;;;;;;;14.36;100.00;101483.22;5036823;28;19971;-76
2023/07/13 03:01:20;;;;;;;;;;;;;;;14.37;100.00;101483.09;5018871;28;20366;-77
2023/07/13 03:03:46;;;;;;;;;;;;;;;14.41;100.00;101489.00;5036312;28;19921;-77
2023/07/13 03:06:12;;;;;;;;;;;;;;;14.42;100.00;101488.00;5036853;28;19917;-75
2023/07/13 03:08:37;;;;;;;;;;;;;;;14.42;100.00;101499.56;5036248;28;20361;-77
2023/07/13 03:11:04;;;;;;;;;;;;;;;14.43;100.00;101503.91;5036613;28;19925;-77
2023/07/13 03:13:30;;;;;;;;;;;;;;;14.42;100.00;101499.56;5036111;28;19917;-76
2023/07/13 03:15:55;;;;;;;;;;;;;;;14.41;100.00;101497.03;5036564;28;20281;-76
2023/07/13 03:18:21;;;;;;;;;;;;;;;14.43;100.00;101492.38;5036367;28;20288;-77
2023/07/13 03:20:46;;;;;;;;;;;;;;;14.49;100.00;101494.44;5036531;28;19917;-76
2023/07/13 03:23:11;;;;;;;;;;;;;;;14.52;100.00;101493.31;5036405;28;19919;-77
2023/07/13 03:25:36;;;;;;;;;;;;;;;14.58;100.00;101488.19;5036138;28;19913;-75
2023/07/13 03:28:02;;;;;;;;;;;;;;;14.66;100.00;101491.97;5036052;28;20396;-76
2023/07/13 03:30:27;;;;;;;;;;;;;;;14.70;100.00;101496.06;5036841;28;20242;-76
2023/07/13 03:32:52;;;;;;;;;;;;;;;14.72;100.00;101497.59;5036016;28;19916;-75
2023/07/13 03:35:17;;;;;;;;;;;;;;;14.76;100.00;101488.28;5036297;28;19960;-77
2023/07/13 03:37:43;;;;;;;;;;;;;;;14.79;100.00;101500.50;5037197;28;20261;-77
2023/07/13 03:40:08;;;;;;;;;;;;;;;14.82;100.00;101497.53;5036257;28;20418;-75
2023/07/13 03:42:34;;;;;;;;;;;;;;;14.87;100.00;101503.28;5036550;28;19917;-76
2023/07/13 03:44:59;;;;;;;;;;;;;;;14.90;100.00;101502.13;5036641;28;19978;-76
2023/07/13 03:47:24;;;;;;;;;;;;;;;14.94;100.00;101506.19;5037248;28;19927;-76
2023/07/13 03:49:49;;;;;;;;;;;;;;;14.98;100.00;101500.38;5037125;28;20276;-77
2023/07/13 03:52:15;;;;;;;;;;;;;;;15.02;100.00;101502.75;5019266;28;19917;-76
2023/07/13 03:54:40;;;;;;;;;;;;;;;15.05;100.00;101505.97;5037059;28;19975;-77
2023/07/13 03:57:06;;;;;;;;;;;;;;;15.08;100.00;101507.53;5020773;28;19924;-77
2023/07/13 03:59:31;;;;;;;;;;;;;;;15.11;100.00;101504.53;5039281;28;20369;-76
2023/07/13 04:01:56;;;;;;;;;;;;;;;15.12;100.00;101508.88;5023232;28;19917;-76
2023/07/13 04:04:22;;;;;;;;;;;;;;;15.15;100.00;101513.94;5035291;28;19921;-77
2023/07/13 04:06:47;;;;;;;;;;;;;;;15.17;100.00;101517.31;5045083;28;19913;-78
2023/07/13 04:09:12;;;;;;;;;;;;;;;15.19;100.00;101522.53;5042260;28;19917;-78
2023/07/13 04:11:37;;;;;;;;;;;;;;;15.22;100.00;101512.34;5041055;28;20431;-77
2023/07/13 04:14:03;;;;;;;;;;;;;;;15.29;100.00;101518.78;5036374;28;19914;-77
2023/07/13 04:16:28;;;;;;;;;;;;;;;15.36;100.00;101516.34;5035350;28;20361;-77
2023/07/13 04:18:57;;;;;;;;;;;;;;;15.44;100.00;101511.03;5035412;28;19913;-78
2023/07/13 04:21:22;;;;;;;;;;;;;;;15.55;100.00;101517.16;5036190;28;19919;-77
2023/07/13 04:23:47;;;;;;;;;;;;;;;15.63;100.00;101517.19;5017951;28;19913;-77
2023/07/13 04:26:12;;;;;;;;;;;;;;;15.70;100.00;101526.31;5035283;28;19917;-77
2023/07/13 04:28:38;;;;;;;;;;;;;;;15.75;100.00;101524.03;5017211;28;19917;-77
2023/07/13 04:31:04;;;;;;;;;;;;;;;15.80;100.00;101531.63;5035364;28;19935;-77
2023/07/13 04:33:29;;;;;;;;;;;;;;;15.84;100.00;101527.63;5035025;28;19964;-78
2023/07/13 04:35:56;;;;;;;;;;;;;;;15.87;100.00;101527.31;5034962;28;19917;-76
2023/07/13 04:38:24;;;;;;;;;;;;;;;15.91;100.00;101533.19;5034862;28;20380;-76
2023/07/13 04:40:49;;;;;;;;;;;;;;;15.94;100.00;101530.19;5034915;28;19916;-76
2023/07/13 04:43:15;;;;;;;;;;;;;;;15.98;100.00;101531.59;5017164;28;19970;-76
2023/07/13 04:45:40;;;;;;;;;;;;;;;16.04;100.00;101531.78;5034504;28;20362;-77
2023/07/13 04:48:06;;;;;;;;;;;;;;;16.10;100.00;101533.00;5034533;28;20349;-77
2023/07/13 04:50:31;;;;;;;;;;;;;;;16.16;100.00;101542.25;5016805;28;19913;-77
2023/07/13 04:52:56;;;;;;;;;;;;;;;16.20;100.00;101541.78;5033852;28;20320;-76
2023/07/13 04:55:21;;;;;;;;;;;;;;;16.25;100.00;101541.28;5017082;28;19952;-75
2023/07/13 04:57:47;;;;;;;;;;;;;;;16.30;100.00;101546.19;5034505;28;19935;-75
2023/07/13 05:00:13;;;;;;;;;;;;;;;16.36;100.00;101550.91;5034524;28;20003;-77
2023/07/13 05:02:39;;;;;;;;;;;;;;;16.45;100.00;101549.97;5034189;28;19996;-76
2023/07/13 05:05:04;;;;;;;;;;;;;;;16.53;100.00;101555.38;5034404;28;19943;-78
2023/07/13 05:07:30;;;;;;;;;;;;;;;16.60;100.00;101544.84;5034932;28;19939;-76
2023/07/13 05:09:55;;;;;;;;;;;;;;;16.68;100.00;101547.53;5034318;28;19913;-75
2023/07/13 05:12:21;;;;;;;;;;;;;;;16.73;100.00;101563.19;5017361;28;19924;-78
2023/07/13 05:14:46;;;;;;;;;;;;;;;16.75;100.00;101559.34;5034333;28;19920;-77
2023/07/13 05:17:11;;;;;;;;;;;;;;;16.77;100.00;101561.84;5034633;28;19925;-78
2023/07/13 05:19:37;;;;;;;;;;;;;;;16.82;100.00;101556.00;5034522;28;19917;-80
2023/07/13 05:22:03;;;;;;;;;;;;;;;16.89;100.00;101560.56;5034324;28;19913;-79
2023/07/13 05:24:29;;;;;;;;;;;;;;;16.96;100.00;101562.59;5034195;28;20008;-80
2023/07/13 05:26:54;;;;;;;;;;;;;;;16.97;100.00;101565.13;5034599;28;19967;-81
2023/07/13 05:29:20;;;;;;;;;;;;;;;16.95;100.00;101569.00;5034764;28;19921;-77
2023/07/13 05:31:45;;;;;;;;;;;;;;;16.90;100.00;101567.66;5017019;28;19925;-80
2023/07/13 05:34:10;;;;;;;;;;;;;;;16.87;100.00;101567.97;5017007;28;19917;-80
2023/07/13 05:36:36;;;;;;;;;;;;;;;16.83;100.00;101571.13;5034543;28;19949;-77
2023/07/13 05:39:02;;;;;;;;;;;;;;;16.84;100.00;101573.66;5034903;28;19917;-79
2023/07/13 05:41:27;;;;;;;;;;;;;;;16.85;100.00;101577.16;5034590;28;20003;-79
2023/07/13 05:43:52;;;;;;;;;;;;;;;16.91;100.00;101580.09;5034265;28;20361;-79
2023/07/13 05:46:18;;;;;;;;;;;;;;;16.98;100.00;101582.13;5016147;28;19913;-76
2023/07/13 05:48:43;;;;;;;;;;;;;;;17.05;100.00;101583.16;5033809;28;19917;-79
2023/07/13 05:51:09;;;;;;;;;;;;;;;17.15;100.00;101580.31;5033777;28;20361;-78
2023/07/13 05:53:34;;;;;;;;;;;;;;;17.24;100.00;101592.75;5033731;28;19917;-76
2023/07/13 05:55:59;;;;;;;;;;;;;;;17.33;100.00;101583.72;5033121;28;20023;-78
2023/07/13 05:58:25;;;;;;;;;;;;;;;17.41;100.00;101597.16;5033208;28;19919;-81
2023/07/13 06:00:58;;;;;;;;;;;;;;;17.51;100.00;101605.09;5033412;28;20372;-82
2023/07/13 06:03:24;;;;;;;;;;;;;;;17.57;100.00;101599.06;5018663;28;19966;-79
2023/07/13 06:05:49;;;;;;;;;;;;;;;17.63;100.00;101597.53;5037331;28;20028;-80
2023/07/13 06:08:14;;;;;;;;;;;;;;;17.55;100.00;101598.34;5037491;28;19921;-81
2023/07/13 06:10:39;;;;;;;;;;;;;;;17.41;100.00;101610.63;5037294;28;20020;-79
2023/07/13 06:13:05;;;;;;;;;;;;;;;17.26;100.00;101613.09;5037623;28;20475;-78
2023/07/13 06:15:30;;;;;;;;;;;;;;;17.19;100.00;101619.31;5037141;28;20315;-80
2023/07/13 06:17:55;;;;;;;;;;;;;;;17.15;100.00;101620.63;5037345;28;19917;-77
2023/07/13 06:20:20;;;;;;;;;;;;;;;17.10;100.00;101616.59;5037011;28;20285;-78
2023/07/13 06:22:46;;;;;;;;;;;;;;;17.03;100.00;101615.59;5037246;28;19917;-77
2023/07/13 06:25:11;;;;;;;;;;;;;;;17.06;100.00;101622.47;5037086;28;20012;-78
2023/07/13 06:27:36;;;;;;;;;;;;;;;17.13;100.00;101618.13;5036685;28;19940;-75
2023/07/13 06:30:01;;;;;;;;;;;;;;;17.27;100.00;101624.69;5019571;28;19963;-76
2023/07/13 06:32:27;;;;;;;;;;;;;;;17.52;100.00;101620.22;5036750;28;19913;-77
2023/07/13 06:34:52;;;;;;;;;;;;;;;17.83;100.00;101621.44;5036563;28;20369;-77
2023/07/13 06:37:18;;;;;;;;;;;;;;;18.18;100.00;101609.47;5019608;28;19917;-77
2023/07/13 06:39:43;;;;;;;;;;;;;;;18.27;100.00;101611.16;5036993;28;19917;-78
2023/07/13 06:42:08;;;;;;;;;;;;;;;18.31;100.00;101620.56;5036888;28;19913;-76
2023/07/13 06:44:34;;;;;;;;;;;;;;;18.21;100.00;101630.69;5036362;28;19917;-79
2023/07/13 06:46:59;;;;;;;;;;;;;;;18.30;100.00;101631.50;5003192;28;19964;-80
2023/07/13 06:49:24;;;;;;;;;;;;;;;18.38;100.00;101636.06;5036778;28;20353;-78
2023/07/13 06:51:50;;;;;;;;;;;;;;;18.44;100.00;101636.22;5018997;28;19921;-78
2023/07/13 06:54:15;;;;;;;;;;;;;;;18.59;100.00;101635.50;5037052;28;20398;-78
2023/07/13 06:56:40;;;;;;;;;;;;;;;18.78;100.00;101642.34;5036358;28;20402;-78
2023/07/13 06:59:05;;;;;;;;;;;;;;;18.70;100.00;101642.38;5036501;28;20423;-76
2023/07/13 07:01:31;;;;;;;;;;;;;;;18.66;100.00;101639.19;5036616;28;20373;-76
2023/07/13 07:03:56;;;;;;;;;;;;;;;18.55;100.00;101640.38;5018009;28;19921;-75
2023/07/13 07:06:25;;;;;;;;;;;;;;;18.44;100.00;101648.84;5036602;28;20005;-74
2023/07/13 07:08:50;;;;;;;;;;;;;;;18.27;100.00;101637.25;5036251;28;19925;-76
2023/07/13 07:11:17;;;;;;;;;;;;;;;18.11;100.00;101649.72;5036989;28;20226;-75
2023/07/13 07:13:42;;;;;;;;;;;;;;;18.02;100.00;101642.66;5036406;28;19967;-76
2023/07/13 07:16:08;;;;;;;;;;;;;;;17.95;100.00;101647.88;5035415;28;19917;-77
2023/07/13 07:18:34;;;;;;;;;;;;;;;17.97;100.00;101650.38;5036813;28;20004;-75
2023/07/13 07:20:59;;;;;;;;;;;;;;;18.12;100.00;101648.72;5035708;28;19913;-76
2023/07/13 07:23:24;;;;;;;;;;;;;;;18.40;100.00;101648.34;5035956;28;19921;-76
2023/07/13 07:25:51;;;;;;;;;;;;;;;18.59;100.00;101657.06;5018087;28;20339;-76
2023/07/13 07:28:18;;;;;;;;;;;;;;;18.80;100.00;101649.25;5018504;28;19917;-76
2023/07/13 07:30:43;;;;;;;;;;;;;;;18.93;100.00;101659.53;5019100;28;20257;-78
2023/07/13 07:33:09;;;;;;;;;;;;;;;19.18;100.00;101652.16;5036369;28;19924;-78
2023/07/13 07:35:34;;;;;;;;;;;;;;;19.52;100.00;101660.91;5035706;28;19923;-76
2023/07/13 07:37:59;;;;;;;;;;;;;;;19.57;100.00;101658.50;5035992;28;20327;-76
2023/07/13 07:40:25;;;;;;;;;;;;;;;19.61;100.00;101664.41;5035922;28;19921;-81
2023/07/13 07:42:50;;;;;;;;;;;;;;;19.50;100.00;101668.34;5036283;28;19960;-81
2023/07/13 07:45:15;;;;;;;;;;;;;;;19.35;100.00;101676.38;5018163;28;20334;-81
2023/07/13 07:47:41;;;;;;;;;;;;;;;19.37;100.00;101668.91;5018273;28;20055;-81
2023/07/13 07:50:06;;;;;;;;;;;;;;;19.37;100.00;101674.31;5036432;28;19913;-80
2023/07/13 07:52:32;;;;;;;;;;;;;;;19.51;100.00;101680.81;5036435;28;19917;-76
2023/07/13 07:54:57;;;;;;;;;;;;;;;19.59;100.00;101680.78;5035809;28;19917;-79
2023/07/13 07:57:22;;;;;;;;;;;;;;;19.50;100.00;101688.06;5036076;28;19919;-80
2023/07/13 07:59:48;;;;;;;;;;;;;;;19.48;100.00;101673.94;5035898;28;20020;-78
2023/07/13 08:02:13;;;;;;;;;;;;;;;19.45;100.00;101679.69;5036058;28;19916;-77
2023/07/13 08:04:39;;;;;;;;;;;;;;;19.47;100.00;101682.19;5035670;28;19927;-76
2023/07/13 08:07:04;;;;;;;;;;;;;;;19.35;100.00;101687.97;5035775;28;19928;-79
2023/07/13 08:09:30;;;;;;;;;;;;;;;19.26;100.00;101680.97;5035567;28;19928;-78
2023/07/13 08:11:55;;;;;;;;;;;;;;;19.13;100.00;101686.91;5036233;28;19924;-82
2023/07/13 08:14:20;;;;;;;;;;;;;;;19.25;100.00;101683.84;5036938;28;19917;-79
2023/07/13 08:16:46;;;;;;;;;;;;;;;19.30;100.00;101687.69;5036460;28;20361;-79
2023/07/13 08:19:11;;;;;;;;;;;;;;;19.22;100.00;101693.09;5037203;28;19913;-79
2023/07/13 08:21:37;;;;;;;;;;;;;;;19.01;100.00;101694.53;5017718;28;19935;-81
2023/07/13 08:24:02;;;;;;;;;;;;;;;18.94;100.00;101690.84;5036149;28;19927;-80
2023/07/13 08:26:28;;;;;;;;;;;;;;;18.82;100.00;101694.91;5034764;28;19959;-79
2023/07/13 08:28:53;;;;;;;;;;;;;;;18.78;100.00;101685.47;5035434;28;19913;-79
2023/07/13 08:31:18;;;;;;;;;;;;;;;19.11;100.00;101698.88;5035297;28;19983;-79
2023/07/13 08:33:43;;;;;;;;;;;;;;;19.66;100.00;101691.69;5034806;28;20357;-78
2023/07/13 08:36:09;;;;;;;;;;;;;;;20.14;100.00;101691.53;5035499;28;19924;-77
2023/07/13 08:38:34;;;;;;;;;;;;;;;20.56;100.00;101695.56;5035253;28;19913;-79
2023/07/13 08:41:02;;;;;;;;;;;;;;;20.98;100.00;101694.09;5017797;28;19917;-76
2023/07/13 08:43:28;;;;;;;;;;;;;;;21.27;100.00;101695.09;5036473;28;19913;-79
2023/07/13 08:46:09;;;;;;;;;;;;;;;21.40;100.00;101702.53;5017618;28;19913;-78
2023/07/13 08:48:37;;;;;;;;;;;;;;;21.50;100.00;101700.41;5035445;28;19913;-77
2023/07/13 08:51:21;;;;;;;;;;;;;;;21.43;100.00;101692.16;5019000;28;20296;-79
2023/07/13 08:53:48;;;;;;;;;;;;;;;20.94;100.00;101693.66;5035730;28;19913;-79
2023/07/13 08:56:18;;;;;;;;;;;;;;;20.75;100.00;101689.63;5037047;28;19960;-85
2023/07/13 08:58:44;;;;;;;;;;;;;;;21.06;100.00;101690.44;5038677;28;20345;-84
2023/07/13 09:01:36;;;;;;;;;;;;;;;21.31;100.00;101690.97;5038346;28;19919;-85
2023/07/13 09:04:08;;;;;;;;;;;;;;;21.55;100.00;101695.25;5007611;28;19963;-80
2023/07/13 09:06:45;;;;;;;;;;;;;;;21.65;100.00;101693.06;5035993;28;19924;-81
2023/07/13 09:09:16;;;;;;;;;;;;;;;22.17;100.00;101684.81;5035671;28;19978;-82
2023/07/13 09:11:56;;;;;;;;;;;;;;;22.34;100.00;101685.38;5035172;28;19913;-83
2023/07/13 09:14:32;;;;;;;;;;;;;;;22.42;100.00;101696.06;5034169;28;20372;-80
2023/07/13 09:16:58;;;;;;;;;;;;;;;22.47;100.00;101690.91;5035132;28;20412;-78
2023/07/13 09:19:26;;;;;;;;;;;;;;;22.84;100.00;101697.00;5034402;28;19959;-80
2023/07/13 09:21:54;;;;;;;;;;;;;;;23.03;100.00;101698.13;5034114;28;20376;-80
2023/07/13 09:24:22;;;;;;;;;;;;;;;23.44;99.11;101695.59;5034151;28;19913;-78
2023/07/13 09:26:47;;;;;;;;;;;;;;;23.46;93.50;101702.50;5034413;28;19913;-80
2023/07/13 09:29:23;;;;;;;;;;;;;;;23.67;99.58;101706.97;5034532;28;20021;-79
2023/07/13 09:31:54;;;;;;;;;;;;;;;23.84;94.36;101715.56;5035124;28;20349;-78
2023/07/13 09:34:19;;;;;;;;;;;;;;;23.88;86.92;101711.41;5035551;28;19955;-80
2023/07/13 09:36:44;;;;;;;;;;;;;;;23.71;88.51;101713.66;5044478;28;20008;-78
2023/07/13 09:39:22;;;;;;;;;;;;;;;23.90;95.13;101705.78;5053665;28;19962;-80
2023/07/13 09:41:55;;;;;;;;;;;;;;;23.16;91.28;101715.56;5035986;28;19913;-81
2023/07/13 09:44:43;;;;;;;;;;;;;;;22.73;93.76;101716.53;5034360;28;20069;-79
2023/07/13 09:47:16;;;;;;;;;;;;;;;22.44;94.75;101718.41;5034982;28;19913;-81
2023/07/13 09:49:43;;;;;;;;;;;;;;;23.01;89.69;101723.81;5034813;28;19916;-77
2023/07/13 09:52:11;;;;;;;;;;;;;;;23.32;83.44;101722.50;5034649;28;19920;-84
2023/07/13 09:54:37;;;;;;;;;;;;;;;24.00;79.59;101740.72;5033680;28;19959;-79
2023/07/13 09:57:03;;;;;;;;;;;;;;;24.42;79.10;101731.34;5034256;28;19913;-80
2023/07/13 09:59:31;;;;;;;;;;;;;;;24.65;74.89;101746.41;5034412;28;20424;-82
2023/07/13 10:01:56;;;;;;;;;;;;;;;24.56;78.43;101745.75;5033907;28;19913;-79
2023/07/13 10:04:26;;;;;;;;;;;;;;;24.45;80.01;101744.50;5034239;28;20318;-81
2023/07/13 10:07:04;;;;;;;;;;;;;;;23.81;81.78;101745.88;5034081;28;19919;-79
2023/07/13 10:09:29;;;;;;;;;;;;;;;22.66;93.62;101748.19;5016137;28;19913;-80
2023/07/13 10:11:54;;;;;;;;;;;;;;;23.04;93.84;101737.78;5033947;28;19963;-80
2023/07/13 10:14:23;;;;;;;;;;;;;;;23.48;89.14;101752.00;5033825;28;20015;-80
2023/07/13 10:16:53;;;;;;;;;;;;;;;23.09;88.43;101749.94;5033385;28;19913;-81
2023/07/13 10:19:24;;;;;;;;;;;;;;;23.62;91.14;101766.50;5034012;28;19920;-78
2023/07/13 10:21:55;;;;;;;;;;;;;;;24.69;81.57;101763.13;5033995;28;19917;-80
2023/07/13 10:24:29;;;;;;;;;;;;;;;24.87;73.74;101763.34;5033576;28;19924;-80
2023/07/13 10:26:58;;;;;;;;;;;;;;;24.04;75.38;101766.44;5034730;28;19924;-80
2023/07/13 10:29:25;;;;;;;;;;;;;;;23.83;76.95;101776.38;5034079;28;19936;-81
2023/07/13 10:31:51;;;;;;;;;;;;;;;23.74;78.07;101761.31;5034108;28;19917;-75
2023/07/13 10:34:17;;;;;;;;;;;;;;;23.90;83.35;101769.13;5033163;28;19917;-79
2023/07/13 10:36:44;;;;;;;;;;;;;;;23.82;80.30;101771.97;5034012;28;20008;-79
2023/07/13 10:39:13;;;;;;;;;;;;;;;24.50;76.78;101768.34;5033740;28;19963;-81
2023/07/13 10:41:41;;;;;;;;;;;;;;;24.44;73.70;101767.31;5033634;28;19920;-78
2023/07/13 10:44:15;;;;;;;;;;;;;;;24.15;71.92;101776.69;5015734;28;19919;-77
2023/07/13 10:46:41;;;;;;;;;;;;;;;24.15;78.98;101779.41;5016108;28;20289;-79
2023/07/13 10:49:07;;;;;;;;;;;;;;;25.02;68.80;101779.44;5017284;28;19917;-81
2023/07/13 10:51:33;;;;;;;;;;;;;;;25.40;68.32;101786.88;5038701;28;19944;-79
2023/07/13 10:54:11;;;;;;;;;;;;;;;26.06;60.89;101797.69;5038697;28;19913;-80
2023/07/13 10:56:36;;;;;;;;;;;;;;;26.34;59.90;101786.38;5038294;28;19920;-78
2023/07/13 10:59:11;;;;;;;;;;;;;;;26.35;57.46;101783.44;5036690;28;19917;-82
2023/07/13 11:01:41;;;;;;;;;;;;;;;26.15;60.15;101786.28;5037357;28;20000;-81
2023/07/13 11:04:11;;;;;;;;;;;;;;;27.00;60.66;101773.22;5037103;28;19913;-78
2023/07/13 11:06:44;;;;;;;;;;;;;;;27.19;54.20;101790.44;5036777;28;19956;-77
2023/07/13 11:09:29;;;;;;;;;;;;;;;26.79;55.30;101790.84;5036974;28;19916;-78
2023/07/13 11:12:02;;;;;;;;;;;;;;;26.22;57.63;101794.44;5036810;28;20344;-80
2023/07/13 11:14:28;;;;;;;;;;;;;;;26.90;62.31;101788.22;5036750;28;19913;-80
2023/07/13 11:16:53;;;;;;;;;;;;;;;26.90;54.61;101795.56;5037163;28;19913;-82
2023/07/13 11:19:18;;;;;;;;;;;;;;;26.17;57.65;101800.56;5036711;28;20012;-79
2023/07/13 11:22:01;;;;;;;;;;;;;;;26.01;61.46;101795.63;5036731;28;19992;-77
2023/07/13 11:24:29;;;;;;;;;;;;;;;26.35;61.66;101794.34;5036233;28;19920;-77
2023/07/13 11:26:55;;;;;;;;;;;;;;;26.61;55.33;101788.91;5036595;28;19913;-79
2023/07/13 11:29:20;;;;;;;;;;;;;;;26.16;54.41;101787.16;5018808;28;19921;-82
2023/07/13 11:31:52;;;;;;;;;;;;;;;26.28;55.41;101793.56;5036621;28;19913;-80
2023/07/13 11:34:21;;;;;;;;;;;;;;;26.14;56.32;101790.09;5036376;28;20370;-81
2023/07/13 11:36:47;;;;;;;;;;;;;;;25.75;54.00;101802.03;5036259;28;19913;-80
2023/07/13 11:39:33;;;;;;;;;;;;;;;25.83;55.16;101786.25;5019022;28;19913;-79
2023/07/13 11:42:04;;;;;;;;;;;;;;;26.03;54.49;101793.50;5036029;28;20000;-76
2023/07/13 11:44:30;;;;;;;;;;;;;;;26.17;54.89;101800.56;5035436;28;19955;-78
2023/07/13 11:47:02;;;;;;;;;;;;;;;26.36;53.08;101797.91;5036489;28;20241;-80
2023/07/13 11:49:29;;;;;;;;;;;;;;;26.22;50.76;101795.25;5035751;28;20030;-77
2023/07/13 11:51:55;;;;;;;;;;;;;;;26.40;51.48;101805.41;5035487;28;19909;-81
2023/07/13 11:54:23;;;;;;;;;;;;;;;26.71;50.61;101800.19;5035366;28;20434;-82
2023/07/13 11:56:49;;;;;;;;;;;;;;;27.25;48.77;101803.19;5036002;28;19932;-81
2023/07/13 11:59:15;;;;;;;;;;;;;;;27.70;47.38;101813.81;5035641;28;20356;-74
2023/07/13 12:01:44;;;;;;;;;;;;;;;27.73;47.94;101807.88;5035724;28;19913;-78
2023/07/13 12:04:21;;;;;;;;;;;;;;;27.78;45.39;101810.75;5035517;28;19916;-76
2023/07/13 12:06:47;;;;;;;;;;;;;;;27.15;45.67;101820.09;5036069;28;20276;-78
2023/07/13 12:09:13;;;;;;;;;;;;;;;27.01;48.01;101810.38;5035465;28;19916;-83
2023/07/13 12:11:40;;;;;;;;;;;;;;;27.19;47.46;101806.84;5035498;28;20265;-81
2023/07/13 12:14:06;;;;;;;;;;;;;;;27.59;47.09;101806.41;5036592;28;19963;-79
2023/07/13 12:16:32;;;;;;;;;;;;;;;27.18;46.30;101805.97;5034875;28;19909;-79
2023/07/13 12:18:59;;;;;;;;;;;;;;;27.11;48.35;101794.31;5017528;28;19952;-80
2023/07/13 12:21:32;;;;;;;;;;;;;;;27.71;49.34;101809.19;5035012;28;19909;-79
2023/07/13 12:23:57;;;;;;;;;;;;;;;28.09;44.95;101800.66;5035684;28;20041;-81
2023/07/13 12:26:23;;;;;;;;;;;;;;;27.99;45.15;101816.81;5035010;28;19944;-81